Time;durP1;ratioP1;P1;durP2;ratioP2;P2;SDS_P1;SDS_P2;PMS_P1;PMS_P2;Temp;Humidity;BMP_temperature;BMP_pressure;BME280_temperature;BME280_humidity;BME280_pressure;Samples;Min_cycle;Max_cycle;Signal;HPM_P1;HPM_P2
2023/09/01 00:02:24;;;;;;;2.73;2.30;;;16.50;85.50;;;19.27;55.09;101092.06;5035149;28;20289;-64
2023/09/01 00:04:55;;;;;;;2.80;2.03;;;16.40;85.50;;;19.24;55.33;101089.00;5022075;28;20191;-65
2023/09/01 00:07:22;;;;;;;3.13;2.40;;;16.40;85.60;;;19.18;55.24;101093.41;5014787;28;20286;-65
2023/09/01 00:09:50;;;;;;;4.80;2.53;;;16.40;85.50;;;19.17;55.58;101096.28;5014880;28;20219;-64
2023/09/01 00:12:17;;;;;;;5.80;2.20;;;16.30;85.70;;;19.12;55.75;101088.94;5014890;28;20542;-66
2023/09/01 00:14:44;;;;;;;3.00;2.40;;;16.30;85.90;;;19.12;55.88;101093.44;5014694;28;20192;-65
2023/09/01 00:17:12;;;;;;;2.80;1.97;;;16.40;86.00;;;19.12;55.89;101088.13;5014798;28;20281;-67
2023/09/01 00:19:40;;;;;;;2.70;2.17;;;16.30;86.40;;;19.14;56.11;101086.03;5024612;28;20663;-64
2023/09/01 00:22:08;;;;;;;3.70;2.20;;;16.40;86.30;;;19.17;55.55;101085.59;5026424;28;20267;-65
2023/09/01 00:24:36;;;;;;;5.10;2.73;;;16.40;86.00;;;19.11;55.82;101086.50;5014638;28;20191;-63
2023/09/01 00:27:04;;;;;;;3.80;2.90;;;16.40;85.50;;;19.02;55.96;101082.50;5014919;28;20218;-65
2023/09/01 00:29:33;;;;;;;4.30;2.30;;;16.30;85.30;;;18.91;56.04;101087.53;5014246;28;20282;-62
2023/09/01 00:32:00;;;;;;;4.03;2.50;;;16.30;85.50;;;18.85;56.31;101088.38;5014551;28;20201;-64
2023/09/01 00:34:31;;;;;;;3.57;1.90;;;16.20;85.60;;;18.84;56.33;101084.09;5014689;28;20238;-64
2023/09/01 00:36:58;;;;;;;3.97;2.60;;;16.20;86.20;;;18.91;56.44;101081.38;5014436;28;20278;-62
2023/09/01 00:39:27;;;;;;;2.80;2.60;;;16.20;86.60;;;18.92;56.30;101083.78;5026161;28;20269;-64
2023/09/01 00:41:54;;;;;;;4.30;2.93;;;16.20;86.20;;;18.92;56.27;101083.78;5033147;28;20562;-64
2023/09/01 00:44:21;;;;;;;10.23;2.70;;;16.20;86.30;;;18.90;56.10;101091.22;5029788;28;20276;-66
2023/09/01 00:46:49;;;;;;;3.37;2.53;;;16.20;86.20;;;18.92;56.32;101083.78;5013910;28;20221;-64
2023/09/01 00:49:18;;;;;;;4.53;2.50;;;16.20;86.40;;;18.97;56.40;101087.69;5012991;28;20192;-64
2023/09/01 00:51:48;;;;;;;2.07;1.80;;;16.20;86.70;;;19.03;56.44;101086.78;5012782;28;20269;-65
2023/09/01 00:54:15;;;;;;;9.60;2.83;;;16.30;86.70;;;19.08;55.80;101081.59;5014569;28;20552;-65
2023/09/01 00:56:45;;;;;;;4.47;2.33;;;16.30;86.10;;;19.08;55.76;101082.41;5014101;28;20297;-64
2023/09/01 00:59:14;;;;;;;3.30;2.50;;;16.30;85.80;;;19.09;55.57;101080.56;5014502;28;20191;-67
2023/09/01 01:01:42;;;;;;;2.23;2.00;;;16.30;85.70;;;19.07;55.71;101079.97;5014107;28;20215;-65
2023/09/01 01:04:10;;;;;;;2.53;2.10;;;16.30;85.60;;;19.10;55.86;101082.19;4994615;28;20196;-65
2023/09/01 01:06:47;;;;;;;3.63;2.10;;;16.30;85.70;;;19.09;55.60;101083.25;4994387;28;20208;-66
2023/09/01 01:09:27;;;;;;;2.53;1.70;;;16.30;85.50;;;19.09;55.61;101091.25;4993373;28;20211;-65
2023/09/01 01:12:09;;;;;;;3.00;2.27;;;16.30;85.90;;;19.09;55.37;101091.25;4993290;28;20290;-66
2023/09/01 01:14:41;;;;;;;3.60;2.03;;;16.30;85.80;;;19.11;55.51;101083.84;4994086;28;20203;-65
2023/09/01 01:17:12;;;;;;;3.10;1.90;;;16.30;85.50;;;19.13;55.42;101079.09;4993402;28;20183;-64
2023/09/01 01:19:49;;;;;;;2.63;2.00;;;16.30;85.80;;;19.16;55.43;101089.31;5007116;28;20286;-66
2023/09/01 01:22:34;;;;;;;4.30;2.30;;;16.30;85.50;;;19.21;55.27;101090.28;5022775;28;20178;-65
2023/09/01 01:25:06;;;;;;;4.10;2.43;;;16.40;85.70;;;19.27;55.41;101086.72;5033768;28;20678;-66
2023/09/01 01:27:33;;;;;;;3.30;2.40;;;16.50;85.20;;;19.28;54.72;101088.34;5027415;28;20197;-66
2023/09/01 01:30:00;;;;;;;4.27;3.50;;;16.50;84.70;;;19.27;54.61;101089.41;5012895;28;20735;-70
2023/09/01 01:32:28;;;;;;;4.00;2.33;;;16.50;83.90;;;19.25;55.06;101088.00;5014107;28;20195;-64
2023/09/01 01:35:10;;;;;;;4.87;2.80;;;16.50;84.20;;;19.21;54.47;101094.78;5013535;28;20257;-64
2023/09/01 01:37:45;;;;;;;2.70;2.23;;;16.60;84.10;;;19.23;54.96;101098.06;5012260;28;20199;-65
2023/09/01 01:40:14;;;;;;;2.80;2.20;;;16.60;84.50;;;19.26;54.73;101093.09;5013956;28;20750;-64
2023/09/01 01:42:46;;;;;;;4.67;2.17;;;16.60;84.20;;;19.27;54.40;101085.91;5013843;28;20226;-66
2023/09/01 01:45:20;;;;;;;3.87;2.43;;;16.60;84.20;;;19.29;54.29;101089.16;5013095;28;20657;-66
2023/09/01 01:47:49;;;;;;;2.83;1.80;;;16.60;84.10;;;19.27;54.56;101097.41;4994760;28;20246;-62
2023/09/01 01:50:16;;;;;;;3.27;1.80;;;16.60;84.10;;;19.29;54.64;101097.16;5010850;28;20219;-68
2023/09/01 01:52:43;;;;;;;3.23;2.60;;;16.60;84.30;;;19.32;54.69;101096.75;5013560;28;20196;-69
2023/09/01 01:55:10;;;;;;;2.93;2.63;;;16.60;84.30;;;19.34;54.02;101100.00;5011868;28;20321;-64
2023/09/01 01:57:39;;;;;;;3.07;2.77;;;16.60;83.30;;;19.24;53.69;101094.34;5015197;28;20187;-65
2023/09/01 02:00:11;;;;;;;4.47;3.30;;;16.60;82.70;;;19.10;54.04;101103.53;5016613;28;20227;-65
2023/09/01 02:02:38;;;;;;;3.93;2.90;;;16.50;82.90;;;19.01;54.55;101104.88;5017166;28;20206;-65
2023/09/01 02:05:06;;;;;;;3.63;2.60;;;16.50;83.20;;;18.99;54.64;101104.28;5017483;28;20246;-65
2023/09/01 02:07:34;;;;;;;4.97;2.83;;;16.40;83.90;;;19.01;55.08;101103.03;5017905;28;20195;-65
2023/09/01 02:10:05;;;;;;;4.53;2.87;;;16.40;84.20;;;19.01;54.32;101103.03;5017633;28;20609;-66
2023/09/01 02:12:36;;;;;;;2.93;2.57;;;16.40;83.40;;;18.91;54.95;101103.53;5032594;28;20246;-66
2023/09/01 02:15:08;;;;;;;2.67;2.27;;;16.30;83.40;;;18.86;54.89;101106.03;5015378;28;20273;-64
2023/09/01 02:17:36;;;;;;;4.83;2.93;;;16.30;84.10;;;18.89;55.19;101104.78;5016207;28;20583;-66
2023/09/01 02:20:30;;;;;;;5.60;3.10;;;16.20;84.30;;;18.89;54.96;101105.59;5017313;28;20579;-66
2023/09/01 02:22:54;;;;;;;2.83;2.33;;;16.20;84.20;;;18.90;55.04;101112.56;5031180;28;20214;-65
2023/09/01 02:25:21;;;;;;;3.33;2.83;;;16.20;84.30;;;18.91;54.83;101108.88;5029516;28;20214;-64
2023/09/01 02:27:48;;;;;;;3.13;2.67;;;16.20;83.90;;;18.87;54.38;101107.66;5015897;28;20213;-66
2023/09/01 02:30:17;;;;;;;4.07;2.73;;;16.20;83.70;;;18.83;54.46;101116.31;5015925;28;20223;-68
2023/09/01 02:32:44;;;;;;;3.33;2.70;;;16.20;83.80;;;18.79;54.61;101121.28;5015838;28;20203;-65
2023/09/01 02:35:11;;;;;;;3.67;2.60;;;16.10;84.10;;;18.78;54.72;101124.97;5016848;28;20215;-65
2023/09/01 02:37:38;;;;;;;6.77;3.20;;;16.10;84.20;;;18.71;54.89;101124.22;5016462;28;20723;-65
2023/09/01 02:40:13;;;;;;;6.43;3.07;;;16.10;84.00;;;18.63;54.92;101119.16;5033831;28;20278;-65
2023/09/01 02:42:40;;;;;;;5.30;2.73;;;16.00;83.80;;;18.52;55.03;101117.19;5036641;28;20585;-65
2023/09/01 02:45:12;;;;;;;4.97;3.17;;;15.90;83.80;;;18.43;55.14;101118.47;5030039;28;20223;-64
2023/09/01 02:47:40;;;;;;;5.17;3.00;;;15.80;84.10;;;18.36;55.45;101120.38;5011948;28;20192;-66
2023/09/01 02:50:09;;;;;;;3.27;2.93;;;15.80;84.30;;;18.34;55.59;101117.09;5004689;28;20195;-65
2023/09/01 02:52:36;;;;;;;4.40;3.07;;;15.70;84.80;;;18.39;55.68;101119.13;5016604;28;20195;-65
2023/09/01 02:55:06;;;;;;;3.10;2.80;;;15.70;85.30;;;18.37;55.69;101110.53;5015993;28;20477;-62
2023/09/01 02:57:35;;;;;;;3.10;2.80;;;15.70;84.90;;;18.35;55.51;101116.06;5016537;28;20259;-64
2023/09/01 03:00:14;;;;;;;3.30;3.00;;;15.70;85.00;;;18.36;55.55;101119.53;5015123;28;20294;-65
2023/09/01 03:02:45;;;;;;;3.90;3.50;;;15.70;85.00;;;18.27;55.61;101116.34;5015992;28;20592;-65
2023/09/01 03:05:12;;;;;;;8.67;3.57;;;15.60;84.90;;;18.15;55.91;101107.38;5014515;28;20214;-65
2023/09/01 03:07:40;;;;;;;5.73;3.33;;;15.50;85.00;;;18.07;56.14;101115.63;5015999;28;20279;-64
2023/09/01 03:10:08;;;;;;;4.43;3.30;;;15.40;85.20;;;17.97;56.33;101112.63;5016076;28;20195;-65
2023/09/01 03:12:37;;;;;;;6.10;3.40;;;15.40;85.50;;;17.90;56.57;101114.50;5015014;28;20298;-64
2023/09/01 03:15:06;;;;;;;4.70;3.33;;;15.30;85.70;;;17.80;56.87;101117.63;5015478;28;20297;-65
2023/09/01 03:17:34;;;;;;;4.90;3.40;;;15.20;86.20;;;17.69;57.29;101115.63;5014625;28;20222;-65
2023/09/01 03:20:08;;;;;;;9.50;4.30;;;15.10;86.60;;;17.58;57.50;101117.13;5015700;28;20658;-63
2023/09/01 03:22:36;;;;;;;5.10;3.60;;;15.00;87.00;;;17.49;57.96;101107.69;5026053;28;20182;-64
2023/09/01 03:25:05;;;;;;;5.37;3.87;;;14.90;87.40;;;17.43;58.00;101111.19;5034249;28;20232;-65
2023/09/01 03:27:32;;;;;;;7.07;3.93;;;14.90;87.70;;;17.41;58.38;101110.59;5030068;28;20218;-63
2023/09/01 03:30:00;;;;;;;6.17;3.80;;;14.80;87.90;;;17.42;58.48;101112.19;5015847;28;20282;-64
2023/09/01 03:32:29;;;;;;;6.13;3.50;;;14.80;88.00;;;17.44;58.35;101120.81;5014520;28;20230;-64
2023/09/01 03:34:56;;;;;;;4.73;4.27;;;14.80;88.30;;;17.50;58.47;101122.63;5015238;28;20211;-65
2023/09/01 03:37:24;;;;;;;3.90;3.50;;;14.80;88.50;;;17.58;58.50;101117.13;5015605;28;20193;-64
2023/09/01 03:39:52;;;;;;;5.10;3.40;;;14.80;89.00;;;17.70;58.13;101124.44;5030574;28;20692;-66
2023/09/01 03:42:19;;;;;;;4.33;3.77;;;14.90;88.90;;;17.77;58.19;101119.88;5020071;28;20314;-66
2023/09/01 03:44:46;;;;;;;6.07;4.10;;;14.90;88.80;;;17.86;57.87;101123.94;4994186;28;20291;-64
2023/09/01 03:47:13;;;;;;;4.47;3.27;;;15.00;88.60;;;17.95;58.11;101122.66;5025283;28;20201;-63
2023/09/01 03:49:40;;;;;;;5.40;4.23;;;15.10;88.50;;;17.99;57.15;101121.22;5031521;28;20557;-64
2023/09/01 03:52:07;;;;;;;7.93;4.33;;;15.20;87.70;;;17.98;56.86;101117.72;5015168;28;20226;-64
2023/09/01 03:54:35;;;;;;;4.53;4.00;;;15.20;87.00;;;17.97;57.03;101120.63;5014823;28;20736;-64
2023/09/01 03:57:03;;;;;;;3.60;3.03;;;15.20;86.90;;;17.93;56.85;101116.72;5030249;28;20639;-65
2023/09/01 03:59:30;;;;;;;4.97;3.60;;;15.20;86.70;;;17.88;56.93;101117.38;5015226;28;20274;-65
2023/09/01 04:01:57;;;;;;;4.77;3.50;;;15.20;86.60;;;17.83;56.82;101119.06;5015219;28;20273;-65
2023/09/01 04:04:24;;;;;;;6.33;3.73;;;15.10;86.50;;;17.80;57.15;101122.13;5015105;28;20658;-65
2023/09/01 04:06:51;;;;;;;3.80;3.40;;;15.10;87.00;;;17.80;57.20;101116.81;5014732;28;20215;-65
2023/09/01 04:09:19;;;;;;;3.73;2.90;;;15.10;87.30;;;17.81;57.20;101123.75;5014979;28;20605;-64
2023/09/01 04:11:47;;;;;;;4.63;4.10;;;15.10;87.50;;;17.84;57.17;101120.66;5014769;28;20301;-65
2023/09/01 04:14:14;;;;;;;5.20;3.60;;;15.10;87.50;;;17.86;57.03;101115.94;5014820;28;20201;-64
2023/09/01 04:16:41;;;;;;;5.47;3.70;;;15.10;87.20;;;17.83;57.02;101119.06;5014776;28;20247;-65
2023/09/01 04:19:09;;;;;;;6.17;3.17;;;15.10;87.10;;;17.83;57.52;101113.72;5020887;28;20269;-65
2023/09/01 04:21:37;;;;;;;5.77;3.70;;;15.10;87.60;;;17.85;57.12;101111.66;5030271;28;20269;-64
2023/09/01 04:24:05;;;;;;;5.67;3.80;;;15.10;87.10;;;17.87;57.21;101106.94;5014038;28;20289;-65
2023/09/01 04:26:32;;;;;;;5.10;3.90;;;15.10;87.30;;;17.92;57.20;101107.13;5014059;28;20226;-62
2023/09/01 04:29:00;;;;;;;4.30;3.80;;;15.20;87.90;;;17.98;57.50;101122.25;5014702;28;20646;-62
2023/09/01 04:31:28;;;;;;;6.03;3.67;;;15.20;87.90;;;18.05;57.28;101118.50;5014269;28;20298;-64
2023/09/01 04:33:56;;;;;;;4.97;3.80;;;15.30;87.70;;;18.12;57.16;101118.47;5014454;28;20547;-64
2023/09/01 04:36:27;;;;;;;5.83;3.60;;;15.30;87.70;;;18.21;57.16;101133.16;5014182;28;20263;-65
2023/09/01 04:39:12;;;;;;;6.50;3.77;;;15.40;87.80;;;18.33;57.03;101131.44;5014628;28;20199;-65
2023/09/01 04:41:40;;;;;;;4.10;3.20;;;15.50;87.50;;;18.39;56.65;101119.94;5014247;28;20536;-65
2023/09/01 04:44:08;;;;;;;3.37;3.00;;;15.60;87.20;;;18.47;56.65;101127.69;5013060;28;20198;-65
2023/09/01 04:46:35;;;;;;;3.57;3.27;;;15.70;87.10;;;18.55;56.16;101124.75;5014352;28;20314;-65
2023/09/01 04:49:02;;;;;;;4.87;3.50;;;15.70;86.50;;;18.62;55.93;101124.69;5013929;28;20272;-65
2023/09/01 04:51:29;;;;;;;5.63;3.90;;;15.80;86.30;;;18.62;55.10;101127.38;5014015;28;20221;-65
2023/09/01 04:53:57;;;;;;;6.13;4.30;;;15.80;85.10;;;18.54;55.15;101125.78;5013549;28;20671;-65
2023/09/01 04:56:24;;;;;;;4.40;3.90;;;15.80;84.80;;;18.44;55.44;101137.94;4993223;28;20318;-64
2023/09/01 04:58:51;;;;;;;7.43;3.83;;;15.70;84.90;;;18.39;55.78;101145.78;4994454;28;20219;-63
2023/09/01 05:01:19;;;;;;;4.20;2.93;;;15.70;85.70;;;18.42;56.27;101140.84;4994211;28;20227;-65
2023/09/01 05:03:46;;;;;;;5.57;4.20;;;15.70;86.10;;;18.45;55.55;101145.72;5000215;28;20207;-64
2023/09/01 05:06:13;;;;;;;5.90;4.17;;;15.70;85.50;;;18.42;55.45;101140.84;5012991;28;20214;-64
2023/09/01 05:08:40;;;;;;;5.77;3.93;;;15.70;85.00;;;18.34;55.39;101143.75;5013333;28;20201;-64
2023/09/01 05:11:08;;;;;;;5.70;4.10;;;15.70;84.90;;;18.23;55.68;101152.44;5012237;28;20195;-64
2023/09/01 05:13:36;;;;;;;5.10;4.23;;;15.60;85.60;;;18.10;55.94;101155.16;5011933;28;20669;-65
2023/09/01 05:16:07;;;;;;;6.47;4.00;;;15.50;85.30;;;18.04;56.22;101156.03;5013107;28;20301;-64
2023/09/01 05:18:35;;;;;;;6.00;4.40;;;15.40;85.50;;;17.96;56.12;101153.59;5014352;28;20652;-66
2023/09/01 05:21:02;;;;;;;6.90;4.47;;;15.40;85.90;;;17.91;56.56;101158.75;5033060;28;20270;-66
2023/09/01 05:23:32;;;;;;;7.50;4.73;;;15.30;85.80;;;17.87;56.82;101152.22;5013770;28;20282;-64
2023/09/01 05:25:59;;;;;;;6.23;4.17;;;15.20;86.30;;;17.81;56.87;101147.72;5013120;28;20211;-64
2023/09/01 05:28:26;;;;;;;5.77;4.53;;;15.20;86.70;;;17.79;57.10;101157.78;5012043;28;20770;-65
2023/09/01 05:30:56;;;;;;;4.63;4.07;;;15.10;86.80;;;17.76;57.23;101160.88;5012903;28;20195;-65
2023/09/01 05:33:23;;;;;;;5.03;4.00;;;15.10;87.00;;;17.78;57.46;101159.63;5013891;28;20205;-64
2023/09/01 05:35:51;;;;;;;7.80;5.57;;;15.00;87.30;;;17.81;57.25;101159.19;5013552;28;20214;-66
2023/09/01 05:38:18;;;;;;;6.87;4.30;;;15.10;87.70;;;17.84;57.26;101160.63;5018963;28;20278;-64
2023/09/01 05:40:55;;;;;;;5.47;4.73;;;15.10;87.60;;;17.88;57.25;101169.81;5035707;28;20210;-64
2023/09/01 05:43:23;;;;;;;5.87;4.40;;;15.10;87.80;;;17.97;57.40;101173.91;5035641;28;20297;-67
2023/09/01 05:45:50;;;;;;;5.50;4.47;;;15.10;87.90;;;18.01;56.97;101175.94;5019791;28;20239;-64
2023/09/01 05:48:17;;;;;;;7.33;4.83;;;15.20;87.60;;;18.02;56.78;101176.72;5016492;28;20255;-65
2023/09/01 05:50:45;;;;;;;5.43;4.43;;;15.20;87.50;;;18.01;56.84;101175.94;5016120;28;20594;-65
2023/09/01 05:53:13;;;;;;;5.90;4.60;;;15.20;87.30;;;18.00;56.87;101184.09;5016910;28;20302;-65
2023/09/01 05:55:40;;;;;;;5.83;4.47;;;15.20;87.30;;;17.92;57.15;101181.69;5016841;28;20277;-65
2023/09/01 05:58:07;;;;;;;8.30;5.50;;;15.10;87.30;;;17.84;57.36;101180.09;5017095;28;20283;-65
2023/09/01 06:00:34;;;;;;;6.77;5.03;;;15.10;87.50;;;17.77;57.50;101178.47;5016573;28;20230;-65
2023/09/01 06:03:03;;;;;;;4.70;4.27;;;15.00;87.70;;;17.76;57.72;101188.31;5016976;28;20188;-63
2023/09/01 06:05:31;;;;;;;6.40;4.87;;;15.00;87.90;;;17.75;57.99;101193.84;5017030;28;20215;-65
2023/09/01 06:07:58;;;;;;;8.57;5.13;;;15.00;88.20;;;17.72;57.95;101187.09;5016669;28;20195;-65
2023/09/01 06:10:26;;;;;;;7.70;5.30;;;15.00;89.10;;;17.77;58.05;101189.13;5016912;28;20539;-66
2023/09/01 06:12:54;;;;;;;11.53;5.10;;;15.00;88.60;;;17.80;57.99;101184.22;5015245;28;20215;-64
2023/09/01 06:15:21;;;;;;;5.47;4.93;;;15.00;88.60;;;17.81;58.04;101191.16;5016295;28;20295;-64
2023/09/01 06:17:48;;;;;;;8.83;5.17;;;15.00;88.70;;;17.80;58.25;101188.72;5015165;28;20191;-64
2023/09/01 06:20:15;;;;;;;5.57;5.07;;;15.00;88.60;;;17.82;57.93;101197.31;5031256;28;20195;-64
2023/09/01 06:22:46;;;;;;;5.70;5.10;;;15.10;88.60;;;17.86;58.16;101199.34;5023074;28;20245;-64
2023/09/01 06:25:14;;;;;;;7.17;5.43;;;15.00;88.80;;;17.90;58.10;101202.41;5015588;28;20298;-65
2023/09/01 06:27:42;;;;;;;8.10;4.73;;;15.10;88.80;;;17.92;57.88;101208.34;5016107;28;20224;-64
2023/09/01 06:30:10;;;;;;;8.63;4.63;;;15.10;88.70;;;17.98;57.94;101202.16;5023010;28;20641;-65
2023/09/01 06:32:37;;;;;;;5.23;4.60;;;15.20;88.80;;;18.05;58.08;101203.75;5022984;28;20215;-64
2023/09/01 06:35:05;;;;;;;7.33;4.80;;;15.20;88.80;;;18.17;57.79;101201.25;5015866;28;20723;-65
2023/09/01 06:37:32;;;;;;;5.20;4.60;;;15.30;88.90;;;18.31;57.72;101208.13;5015694;28;20195;-64
2023/09/01 06:39:59;;;;;;;6.90;5.27;;;15.40;88.90;;;18.44;57.29;101212.59;5032080;28;20198;-65
2023/09/01 06:42:26;;;;;;;4.90;4.40;;;15.50;88.50;;;18.55;56.94;101215.41;5035844;28;20211;-64
2023/09/01 06:44:55;;;;;;;6.83;4.23;;;15.60;88.40;;;18.65;56.52;101221.09;5018626;28;20224;-65
2023/09/01 06:47:22;;;;;;;5.03;4.00;;;15.70;87.90;;;18.72;56.66;101219.22;5015108;28;20558;-64
2023/09/01 06:49:49;;;;;;;6.20;4.50;;;15.80;87.60;;;18.79;56.34;101217.31;5016043;28;20199;-64
2023/09/01 06:52:17;;;;;;;5.27;3.73;;;15.90;87.30;;;18.87;56.14;101219.69;5015792;28;20269;-66
2023/09/01 06:54:44;;;;;;;4.97;4.00;;;15.90;87.00;;;18.92;55.63;101222.53;5015423;28;20191;-64
2023/09/01 06:57:11;;;;;;;5.93;4.27;;;16.00;87.30;;;19.02;55.71;101218.59;5016016;28;20187;-66
2023/09/01 06:59:38;;;;;;;5.37;4.13;;;16.10;86.40;;;19.14;55.88;101214.16;5015155;28;20270;-65
2023/09/01 07:02:07;;;;;;;4.23;3.10;;;16.20;86.70;;;19.32;55.39;101227.56;5015460;28;20222;-65
2023/09/01 07:04:34;;;;;;;4.23;3.07;;;16.30;86.60;;;19.53;55.15;101219.16;5014526;28;20286;-64
2023/09/01 07:07:01;;;;;;;6.10;4.50;;;16.40;86.60;;;19.67;54.38;101215.31;5014476;28;20233;-65
2023/09/01 07:09:28;;;;;;;3.97;3.33;;;16.60;85.40;;;19.77;53.92;101215.59;5015604;28;20667;-65
2023/09/01 07:11:58;;;;;;;4.43;4.03;;;16.70;85.10;;;19.88;53.84;101227.38;5014403;28;20281;-66
2023/09/01 07:14:25;;;;;;;6.93;3.43;;;16.80;84.50;;;19.82;53.21;101222.94;5015445;28;20184;-65
2023/09/01 07:16:52;;;;;;;6.90;4.03;;;16.90;83.80;;;20.03;54.03;101220.63;5015081;28;20322;-64
2023/09/01 07:19:20;;;;;;;4.27;3.87;;;17.00;84.70;;;20.49;53.45;101229.94;5005191;28;20217;-65
2023/09/01 07:21:47;;;;;;;6.20;3.60;;;17.20;84.70;;;20.90;51.97;101230.75;5030019;28;20676;-65
2023/09/01 07:24:14;;;;;;;5.07;3.27;;;17.40;84.40;;;21.55;52.00;101222.66;5014570;28;20199;-64
2023/09/01 07:26:43;;;;;;;4.70;3.30;;;17.70;84.90;;;22.19;50.07;101216.25;5015346;28;20298;-65
2023/09/01 07:29:10;;;;;;;4.00;2.93;;;18.20;83.00;;;22.79;49.06;101212.00;5013685;28;20211;-65
2023/09/01 07:31:37;;;;;;;3.40;3.00;;;18.70;81.90;;;23.48;48.05;101215.25;5014291;28;20237;-65
2023/09/01 07:34:04;;;;;;;3.07;2.50;;;19.20;80.90;;;24.26;46.79;101219.44;5014945;28;20262;-65
2023/09/01 07:36:32;;;;;;;3.30;2.60;;;19.70;80.00;;;25.17;45.54;101215.72;5013261;28;20230;-65
2023/09/01 07:38:59;;;;;;;2.77;2.37;;;20.30;79.60;;;26.16;43.53;101217.34;5019575;28;20188;-65
2023/09/01 07:41:26;;;;;;;4.67;2.50;;;20.90;76.80;;;26.90;40.67;101224.22;5014841;28;20289;-65
2023/09/01 07:43:54;;;;;;;3.83;2.70;;;21.60;72.60;;;27.39;38.71;101230.69;5014018;28;20228;-65
2023/09/01 07:46:21;;;;;;;5.83;2.73;;;22.20;69.40;;;27.56;37.35;101224.97;5010452;28;20265;-66
2023/09/01 07:48:48;;;;;;;3.83;2.40;;;22.50;66.00;;;27.91;37.75;101224.84;5017999;28;20214;-65
2023/09/01 07:51:15;;;;;;;2.27;2.07;;;23.00;67.10;;;28.50;37.77;101232.97;5015467;28;20693;-67
2023/09/01 07:53:43;;;;;;;2.60;2.20;;;23.50;67.50;;;29.13;36.39;101221.06;5013523;28;20294;-66
2023/09/01 07:56:10;;;;;;;3.57;1.90;;;23.90;66.60;;;29.45;35.21;101224.00;5013712;28;20314;-67
2023/09/01 07:58:38;;;;;;;2.13;1.73;;;24.30;63.60;;;29.25;35.22;101221.53;5013778;28;20199;-64
2023/09/01 08:01:05;;;;;;;2.60;1.83;;;24.50;62.80;;;28.93;34.81;101218.53;5014175;28;20222;-64
2023/09/01 08:03:32;;;;;;;3.80;2.10;;;24.50;60.00;;;28.48;34.27;101221.59;5014449;28;20187;-64
2023/09/01 08:06:00;;;;;;;2.53;1.77;;;24.40;58.80;;;28.46;35.75;101221.03;5012517;28;20226;-64
2023/09/01 08:08:27;;;;;;;3.07;2.17;;;24.30;60.50;;;29.03;35.51;101218.44;5013023;28;20226;-64
2023/09/01 08:10:55;;;;;;;3.37;2.00;;;24.40;61.30;;;29.69;35.14;101217.81;5014448;28;20278;-64
2023/09/01 08:13:23;;;;;;;2.17;1.93;;;24.60;62.00;;;30.19;33.06;101219.06;5022790;28;20557;-65
2023/09/01 08:15:50;;;;;;;4.27;2.30;;;24.90;60.50;;;30.37;33.53;101215.56;5020111;28;20248;-65
2023/09/01 08:18:17;;;;;;;3.30;2.17;;;25.10;59.70;;;30.58;31.29;101227.75;5012267;28;20222;-66
2023/09/01 08:20:45;;;;;;;2.37;2.07;;;25.30;56.60;;;30.38;31.58;101223.41;4998206;28;20261;-67
2023/09/01 08:23:13;;;;;;;2.17;1.77;;;25.40;56.20;;;30.24;31.48;101227.16;5015458;28;20225;-65
2023/09/01 08:25:40;;;;;;;3.77;1.93;;;25.50;56.10;;;30.00;31.85;101222.56;5011904;28;20293;-65
2023/09/01 08:28:08;;;;;;;2.27;1.73;;;25.50;55.90;;;29.76;33.01;101221.81;5013584;28;20191;-66
2023/09/01 08:30:35;;;;;;;3.07;2.30;;;25.50;56.50;;;29.81;33.14;101218.22;5013755;28;20187;-65
2023/09/01 08:33:04;;;;;;;3.57;2.30;;;25.40;56.40;;;29.85;33.00;101224.69;5012381;28;20676;-65
2023/09/01 08:35:31;;;;;;;4.80;2.23;;;25.40;56.30;;;30.08;32.63;101224.66;5013351;28;20671;-65
2023/09/01 08:38:00;;;;;;;2.30;2.10;;;25.50;56.90;;;30.58;31.77;101231.28;5012879;28;20199;-64
2023/09/01 08:40:27;;;;;;;2.33;1.57;;;25.60;56.50;;;31.09;31.72;101234.00;5015573;28;20261;-65
2023/09/01 08:42:57;;;;;;;2.67;1.70;;;25.90;56.40;;;31.23;30.83;101223.97;5013252;28;20241;-65
2023/09/01 08:45:30;;;;;;;2.80;1.90;;;26.10;54.90;;;30.80;30.89;101226.03;5013042;28;20247;-65
2023/09/01 08:47:57;;;;;;;2.27;1.90;;;26.10;53.30;;;30.21;31.80;101212.25;4994086;28;20223;-65
2023/09/01 08:50:24;;;;;;;2.53;1.70;;;26.00;53.60;;;29.90;31.63;101221.91;4994931;28;20355;-66
2023/09/01 08:52:51;;;;;;;2.77;1.70;;;25.80;53.60;;;29.88;32.15;101224.13;5013376;28;20306;-67
2023/09/01 08:55:18;;;;;;;1.90;1.30;;;25.70;54.20;;;30.05;32.32;101216.25;5012179;28;20245;-66
2023/09/01 08:57:48;;;;;;;3.23;1.57;;;25.60;54.80;;;30.52;31.88;101218.06;5012469;28;20183;-64
2023/09/01 09:00:16;;;;;;;2.90;1.63;;;25.60;55.00;;;31.07;30.96;101227.25;5012364;28;20329;-66
2023/09/01 09:02:46;;;;;;;2.40;1.80;;;25.80;54.90;;;31.32;30.91;101226.78;5012724;28;20187;-66
2023/09/01 09:05:34;;;;;;;3.77;1.73;;;26.00;54.70;;;31.49;29.56;101227.03;5011848;28;20219;-64
2023/09/01 09:08:06;;;;;;;4.00;1.90;;;26.20;52.80;;;31.48;28.67;101225.41;5013209;28;20195;-65
2023/09/01 09:10:35;;;;;;;4.07;1.63;;;26.30;50.80;;;31.03;28.90;101223.50;5018740;28;20721;-64
2023/09/01 09:13:04;;;;;;;2.20;1.77;;;26.20;50.30;;;30.53;29.55;101217.75;5014163;28;20733;-67
2023/09/01 09:15:32;;;;;;;2.23;1.50;;;26.10;49.90;;;30.20;30.21;101218.78;5012867;28;20711;-65
2023/09/01 09:18:00;;;;;;;3.33;2.40;;;25.90;50.50;;;29.90;30.66;101217.28;5012208;28;20237;-65
2023/09/01 09:20:37;;;;;;;2.47;1.73;;;25.70;50.90;;;29.72;30.49;101225.34;5012920;28;20201;-65
2023/09/01 09:23:05;;;;;;;2.37;1.60;;;25.60;50.70;;;29.56;30.99;101227.44;5017157;28;20285;-65
2023/09/01 09:25:34;;;;;;;1.67;1.40;;;25.50;51.60;;;29.66;31.45;101231.94;5014853;28;20222;-65
2023/09/01 09:28:12;;;;;;;1.83;1.40;;;25.50;52.40;;;29.95;30.94;101230.00;5027708;28;20214;-65
2023/09/01 09:30:48;;;;;;;1.63;1.50;;;25.50;52.50;;;30.19;30.65;101236.16;5012182;28;20226;-65
2023/09/01 09:33:28;;;;;;;2.47;2.00;;;25.60;52.30;;;30.41;30.70;101222.84;5012901;28;20242;-66
2023/09/01 09:35:56;;;;;;;5.63;3.60;;;25.70;52.40;;;30.55;30.03;101231.88;5011199;28;20548;-67
2023/09/01 09:38:23;;;;;;;6.10;5.27;;;25.70;52.40;;;30.69;30.89;101235.44;5020027;28;20733;-65
2023/09/01 09:40:56;;;;;;;16.27;13.63;;;25.80;52.70;;;30.86;30.27;101225.97;5021289;28;20203;-64
2023/09/01 09:43:24;;;;;;;4.17;3.50;;;25.90;52.80;;;30.99;30.18;101242.34;5013484;28;20199;-64
2023/09/01 09:45:52;;;;;;;13.87;12.50;;;26.00;52.40;;;31.07;29.89;101240.84;5011107;28;20223;-64
2023/09/01 09:48:21;;;;;;;3.53;2.17;;;26.10;52.30;;;31.10;29.87;101240.22;5012487;28;20203;-65
2023/09/01 09:50:54;;;;;;;2.73;1.77;;;26.20;51.40;;;30.95;29.58;101243.25;5012029;28;20604;-65
2023/09/01 09:53:23;;;;;;;2.67;2.03;;;26.30;51.40;;;30.51;29.36;101249.88;5012467;28;20199;-66
2023/09/01 09:55:53;;;;;;;3.43;1.60;;;26.20;49.80;;;29.88;30.44;101245.84;5011566;28;20242;-65
2023/09/01 09:58:39;;;;;;;2.23;1.70;;;26.00;49.40;;;29.41;31.20;101252.00;5012495;28;20274;-66
2023/09/01 10:01:15;;;;;;;14.80;2.63;;;25.70;51.00;;;28.97;31.48;101243.19;5011802;28;20195;-67
2023/09/01 10:03:45;;;;;;;2.17;1.70;;;25.40;50.50;;;28.46;32.21;101250.84;5012239;28;20579;-65
2023/09/01 10:06:16;;;;;;;1.50;1.40;;;25.10;51.30;;;28.06;33.05;101247.28;5012326;28;20221;-68
2023/09/01 10:08:44;;;;;;;3.37;2.20;;;25.00;52.00;;;27.92;33.70;101246.22;5010934;28;20207;-66
2023/09/01 10:11:15;;;;;;;2.67;1.67;;;24.70;53.00;;;27.90;34.07;101251.13;5011791;28;20234;-67
2023/09/01 10:13:47;;;;;;;3.50;1.70;;;24.60;53.40;;;27.71;33.60;101252.81;5012163;28;20273;-66
2023/09/01 10:16:14;;;;;;;2.40;1.73;;;24.40;53.20;;;27.54;34.52;101249.59;5011424;28;20281;-66
2023/09/01 10:18:47;;;;;;;2.87;1.33;;;24.30;54.30;;;27.37;34.16;101257.16;5010685;28;20187;-66
2023/09/01 10:21:15;;;;;;;1.60;1.47;;;24.10;53.40;;;27.18;34.42;101266.94;5012110;28;20184;-65